createdAt,value
2019-01-26T00:04:58.248Z,65.50
2019-01-26T00:10:27.887Z,65.60
2019-01-26T00:15:57.516Z,65.50
2019-01-26T00:21:26.960Z,65.50
2019-01-26T00:26:56.590Z,65.40
2019-01-26T00:32:26.216Z,65.40
2019-01-26T00:37:55.804Z,65.40
2019-01-26T00:43:25.267Z,65.30
2019-01-26T00:48:55.091Z,65.30
2019-01-26T00:54:24.583Z,65.20
2019-01-26T00:59:54.166Z,65.00
2019-01-26T01:05:23.892Z,65.10
2019-01-26T01:10:53.592Z,65.30
2019-01-26T01:16:23.279Z,65.40
2019-01-26T01:21:53.097Z,65.60
2019-01-26T01:27:24.592Z,65.60
2019-01-26T01:32:54.349Z,66.50
2019-01-26T01:38:23.860Z,65.50
2019-01-26T01:43:53.509Z,65.40
2019-01-26T01:49:23.106Z,65.10
2019-01-26T01:54:53.481Z,64.80
2019-01-26T02:00:25.937Z,64.50
2019-01-26T02:05:55.486Z,64.50
2019-01-26T02:11:26.016Z,64.30
2019-01-26T02:16:55.447Z,64.10
2019-01-26T02:22:25.442Z,63.90
2019-01-26T02:27:55.142Z,63.90
2019-01-26T02:33:24.657Z,63.80
2019-01-26T02:38:54.179Z,63.70
2019-01-26T02:44:23.917Z,63.60
2019-01-26T02:49:53.528Z,63.60
2019-01-26T02:55:23.191Z,63.40
2019-01-26T03:00:52.588Z,63.50
2019-01-26T03:06:22.118Z,63.20
2019-01-26T03:11:51.643Z,63.40
2019-01-26T03:17:21.026Z,63.60
2019-01-26T03:22:51.617Z,63.20
2019-01-26T03:28:21.127Z,63.00
2019-01-26T03:33:50.577Z,62.90
2019-01-26T03:39:20.118Z,62.80
2019-01-26T03:44:49.639Z,62.90
2019-01-26T03:50:19.064Z,62.90
2019-01-26T03:55:48.551Z,62.80
2019-01-26T04:01:17.993Z,62.80
2019-01-26T04:06:47.641Z,62.60
2019-01-26T04:12:17.215Z,62.70
2019-01-26T04:17:47.117Z,63.00
2019-01-26T04:23:16.856Z,63.10
2019-01-26T04:28:46.371Z,63.70
2019-01-26T04:34:20.337Z,64.70
2019-01-26T04:39:49.788Z,65.20
2019-01-26T04:45:21.974Z,66.00
2019-01-26T04:50:51.751Z,67.00
2019-01-26T04:56:21.360Z,67.80
2019-01-26T05:01:51.003Z,69.70
2019-01-26T05:07:20.432Z,70.40
2019-01-26T05:12:51.609Z,70.70
2019-01-26T05:18:21.205Z,71.30
2019-01-26T05:23:50.682Z,72.80
2019-01-26T05:29:20.371Z,73.70
2019-01-26T05:34:50.019Z,74.70
2019-01-26T05:40:19.999Z,75.80
2019-01-26T05:45:49.421Z,76.00
2019-01-26T05:51:24.967Z,77.30
2019-01-26T05:56:54.768Z,77.90
2019-01-26T06:02:26.034Z,78.70
2019-01-26T06:07:55.893Z,79.50
2019-01-26T06:13:26.167Z,79.90
2019-01-26T06:18:57.295Z,81.30
2019-01-26T06:24:26.841Z,82.10
2019-01-26T06:29:56.530Z,82.90
2019-01-26T06:35:26.015Z,83.40
2019-01-26T06:40:55.490Z,84.20
2019-01-26T06:46:24.947Z,84.50
2019-01-26T06:51:54.681Z,85.20
2019-01-26T06:57:24.104Z,86.30
2019-01-26T07:02:54.706Z,86.00
2019-01-26T07:08:24.105Z,86.90
2019-01-26T07:13:53.691Z,87.10
2019-01-26T07:19:23.273Z,87.10
2019-01-26T07:24:52.715Z,87.50
2019-01-26T07:30:25.232Z,87.60
2019-01-26T07:35:54.789Z,87.60
2019-01-26T07:41:24.331Z,87.50
2019-01-26T07:46:54.048Z,87.30
2019-01-26T07:52:23.897Z,87.80
2019-01-26T07:57:53.566Z,87.60
2019-01-26T08:03:23.944Z,87.70
2019-01-26T08:08:53.491Z,87.80
2019-01-26T08:14:23.208Z,88.30
2019-01-26T08:19:58.487Z,88.10
2019-01-26T08:25:27.927Z,88.10
2019-01-26T08:30:57.425Z,88.20
2019-01-26T08:36:26.947Z,88.20
2019-01-26T08:41:56.429Z,88.20
2019-01-26T08:47:25.982Z,88.30
2019-01-26T08:52:55.612Z,88.50
2019-01-26T08:58:25.081Z,88.40
2019-01-26T09:04:05.129Z,88.50
2019-01-26T09:09:37.578Z,89.30
2019-01-26T09:15:10.334Z,88.60
2019-01-26T09:20:39.812Z,88.90
2019-01-26T09:26:09.260Z,89.00
2019-01-26T09:31:38.611Z,90.00
2019-01-26T09:37:08.082Z,89.50
2019-01-26T09:42:40.454Z,89.60
2019-01-26T09:48:10.015Z,89.90
2019-01-26T09:53:39.405Z,89.90
2019-01-26T09:59:08.711Z,90.10
2019-01-26T10:04:38.113Z,90.20
2019-01-26T10:10:16.156Z,90.20
2019-01-26T10:15:45.664Z,90.50
2019-01-26T10:21:18.413Z,90.60
2019-01-26T10:26:49.129Z,90.50
2019-01-26T10:32:18.974Z,90.60
2019-01-26T10:37:48.393Z,90.70
2019-01-26T10:43:20.429Z,90.80
2019-01-26T10:48:52.525Z,90.70
2019-01-26T10:54:21.957Z,90.80
2019-01-26T10:59:53.093Z,90.80
2019-01-26T11:05:22.705Z,90.90
2019-01-26T11:10:52.660Z,91.00
2019-01-26T11:16:22.363Z,91.00
2019-01-26T11:21:52.358Z,91.10
2019-01-26T11:27:21.823Z,91.10
2019-01-26T11:32:51.310Z,91.00
2019-01-26T11:38:20.917Z,91.00
2019-01-26T11:43:50.598Z,90.80
2019-01-26T11:49:20.156Z,90.80
2019-01-26T11:54:52.367Z,90.70
2019-01-26T12:00:38.860Z,90.30
2019-01-26T12:06:15.625Z,90.40
2019-01-26T12:11:45.099Z,90.20
2019-01-26T12:17:14.553Z,90.10
2019-01-26T12:22:44.099Z,90.00
2019-01-26T12:28:13.577Z,89.60
2019-01-26T12:33:43.094Z,89.30
2019-01-26T12:39:12.479Z,89.00
2019-01-26T12:44:41.783Z,88.40
2019-01-26T12:50:13.612Z,87.50
2019-01-26T12:55:43.191Z,86.90
2019-01-26T13:01:12.631Z,86.20
2019-01-26T13:06:42.035Z,85.60
2019-01-26T13:12:11.562Z,85.30
2019-01-26T13:17:40.944Z,86.00
2019-01-26T13:23:10.521Z,84.70
2019-01-26T13:28:39.913Z,84.30
2019-01-26T13:34:09.455Z,84.10
2019-01-26T13:39:38.879Z,83.90
2019-01-26T13:45:12.940Z,83.70
2019-01-26T13:50:43.086Z,83.50
2019-01-26T13:56:12.808Z,83.30
2019-01-26T14:01:50.310Z,83.10
2019-01-26T14:07:19.912Z,83.00
2019-01-26T14:12:50.130Z,82.90
2019-01-26T14:18:19.889Z,82.80
2019-01-26T14:23:51.593Z,82.90
2019-01-26T14:29:21.503Z,82.80
2019-01-26T14:34:53.049Z,82.80
2019-01-26T14:40:22.832Z,82.60
2019-01-26T14:45:52.979Z,82.50
2019-01-26T14:51:22.648Z,82.40
2019-01-26T14:56:52.327Z,82.40
2019-01-26T15:02:22.120Z,82.40
2019-01-26T15:07:51.869Z,82.40
2019-01-26T15:13:21.844Z,82.30
2019-01-26T15:18:51.414Z,82.30
2019-01-26T15:24:21.327Z,82.20
2019-01-26T15:29:51.233Z,82.30
2019-01-26T15:35:20.907Z,82.40
2019-01-26T15:40:56.396Z,82.50
2019-01-26T15:46:25.794Z,82.50
2019-01-26T15:51:55.391Z,82.80
2019-01-26T15:57:24.957Z,82.80
2019-01-26T16:02:54.426Z,83.00
2019-01-26T16:08:23.890Z,83.10
2019-01-26T16:13:53.525Z,83.30
2019-01-26T16:19:22.961Z,83.40
2019-01-26T16:24:52.573Z,83.50
2019-01-26T16:30:28.336Z,83.50
2019-01-26T16:35:57.762Z,83.60
2019-01-26T16:41:27.232Z,83.70
2019-01-26T16:46:56.751Z,83.80
2019-01-26T16:52:26.707Z,84.00
2019-01-26T16:57:56.319Z,84.20
2019-01-26T17:03:25.997Z,84.20
2019-01-26T17:08:55.489Z,84.30
2019-01-26T17:14:25.225Z,84.40
2019-01-26T17:19:54.913Z,84.30
2019-01-26T17:25:25.184Z,84.50
2019-01-26T17:30:57.228Z,84.50
2019-01-26T17:36:26.725Z,84.30
2019-01-26T17:41:56.180Z,84.40
2019-01-26T17:47:27.113Z,84.30
2019-01-26T17:52:56.775Z,84.30
2019-01-26T17:58:26.764Z,84.30
2019-01-26T18:03:57.853Z,84.20
2019-01-26T18:09:27.409Z,84.00
2019-01-26T18:14:56.976Z,83.90
2019-01-26T18:20:49.331Z,83.80
2019-01-26T18:26:23.063Z,83.70
2019-01-26T18:31:52.715Z,83.60
2019-01-26T18:37:25.213Z,83.60
2019-01-26T18:42:54.992Z,83.50
2019-01-26T18:48:24.778Z,83.60
2019-01-26T18:53:54.235Z,83.60
2019-01-26T18:59:27.442Z,83.40
2019-01-26T19:04:58.532Z,83.30
2019-01-26T19:10:28.141Z,83.20
2019-01-26T19:15:57.652Z,83.10
2019-01-26T19:21:27.319Z,83.00
2019-01-26T19:26:56.821Z,82.80
2019-01-26T19:32:45.419Z,82.90
2019-01-26T19:38:14.696Z,82.90
2019-01-26T19:44:03.313Z,82.80
2019-01-26T19:49:32.597Z,82.60
2019-01-26T19:55:01.934Z,82.50
2019-01-26T20:00:31.215Z,82.40
2019-01-26T20:06:00.490Z,82.40
2019-01-26T20:11:29.835Z,82.60
2019-01-26T20:16:59.195Z,82.50
2019-01-26T20:22:28.571Z,82.50
2019-01-26T20:28:17.257Z,82.60
2019-01-26T20:33:46.776Z,82.50
2019-01-26T20:39:16.042Z,83.00
2019-01-26T20:44:45.342Z,82.50
2019-01-26T20:50:15.622Z,82.70
2019-01-26T20:55:45.087Z,82.80
2019-01-26T21:01:15.354Z,82.80
2019-01-26T21:06:44.653Z,83.00
2019-01-26T21:12:14.546Z,83.00
2019-01-26T21:17:44.046Z,83.10
2019-01-26T21:23:13.372Z,83.10
2019-01-26T21:28:42.639Z,83.10
2019-01-26T21:34:11.989Z,83.10
2019-01-26T21:39:41.253Z,83.20
2019-01-26T21:45:14.072Z,83.10
2019-01-26T21:50:43.645Z,83.30
2019-01-26T21:56:12.937Z,83.20
2019-01-26T22:01:42.192Z,83.30
2019-01-26T22:07:12.385Z,83.20
2019-01-26T22:12:41.736Z,83.30
2019-01-26T22:18:11.211Z,83.30
2019-01-26T22:23:40.606Z,83.30
2019-01-26T22:29:10.590Z,83.20
2019-01-26T22:34:40.030Z,83.20
2019-01-26T22:40:16.718Z,83.20
2019-01-26T22:45:47.311Z,83.10
2019-01-26T22:51:16.924Z,83.20
2019-01-26T22:56:47.139Z,83.20
2019-01-26T23:02:16.487Z,83.30
2019-01-26T23:07:45.912Z,83.30
2019-01-26T23:13:20.144Z,83.30
2019-01-26T23:19:21.542Z,83.30
2019-01-26T23:25:28.888Z,84.60
2019-01-26T23:31:19.512Z,84.20
2019-01-26T23:36:48.772Z,84.10
2019-01-26T23:42:18.430Z,84.00
2019-01-26T23:47:49.637Z,83.90
2019-01-26T23:53:21.612Z,83.70
2019-01-26T23:58:50.866Z,83.70
